PWSweather.com
Personal Weather Stations
Station Observations
CALONGE
CalongeES 17251

CalongeES 17251

Lat: 41.85972222, Lon: 3.077777778

Elevation: 16

Station Type: Oregon WMR928N

www.calonge-meteoweb.com

High Low Average
Temperature 59.7°F15.4°C 33.8°F1.0°C 44.6°F7.0°C
Dew Point 47.9°F8.8°C 27.5°F-2.5°C 38.0°F3.3°C
Winds 10.5 mph 16.9 kmh Calm Calm 5.0 mph SSW8.0 kmh SSW
Wind Gusts 13.2 mph21.2 kmh -- 7.0 mph11.3 kmh
Humidity 96% 57% 79%
Pressure 30.45 in1031.2 mb 30.36 in1028.1 mb -
Precipitation 0.00 in0.0 mm - -
Hour Temp Dew Point Humidity Winds Wind Gusts Pressure Precip Precip Rate Daily Precip Total
12:00 AM 36.9°F2.7°C 34.2°F1.2°C 90% 5.9 mph WNW9.5 kmh WNW 8.2 mph13.2 kmh 30.39 in1029.1 mb 0.00 in0.0 mm 0.00 in0.0 mm 0.00 in0.0 mm
12:15 AM 36.5°F2.5°C 34.1°F1.2°C 91% 3.5 mph WNW5.6 kmh WNW 7.6 mph12.2 kmh 30.39 in1029.1 mb 0.00 in0.0 mm 0.00 in0.0 mm 0.00 in0.0 mm
12:30 AM 37.0°F2.8°C 35.2°F1.8°C 93% Calm Calm -- 30.39 in1029.1 mb 0.00 in0.0 mm 0.00 in0.0 mm 0.00 in0.0 mm
12:45 AM 37.0°F2.8°C 34.9°F1.6°C 92% 3.5 mph W5.6 kmh W 8.2 mph13.2 kmh 30.39 in1029.1 mb 0.00 in0.0 mm 0.00 in0.0 mm 0.00 in0.0 mm
01:00 AM 37.0°F2.8°C 35.2°F1.8°C 93% 4.1 mph WNW6.6 kmh WNW 7.6 mph12.2 kmh 30.39 in1029.1 mb 0.00 in0.0 mm 0.00 in0.0 mm 0.00 in0.0 mm
01:15 AM 36.9°F2.7°C 34.8°F1.6°C 92% Calm Calm 5.3 mph8.5 kmh 30.39 in1029.1 mb 0.00 in0.0 mm 0.00 in0.0 mm 0.00 in0.0 mm
01:30 AM 36.3°F2.4°C 34.2°F1.2°C 92% Calm Calm -- 30.39 in1029.1 mb 0.00 in0.0 mm 0.00 in0.0 mm 0.00 in0.0 mm
01:45 AM 36.0°F2.2°C 33.6°F0.9°C 91% Calm Calm 6.4 mph10.3 kmh 30.39 in1029.1 mb 0.00 in0.0 mm 0.00 in0.0 mm 0.00 in0.0 mm
02:00 AM 36.0°F2.2°C 34.1°F1.2°C 93% Calm Calm -- 30.39 in1029.1 mb 0.00 in0.0 mm 0.00 in0.0 mm 0.00 in0.0 mm
02:15 AM 35.8°F2.1°C 34.2°F1.2°C 94% Calm Calm -- 30.39 in1029.1 mb 0.00 in0.0 mm 0.00 in0.0 mm 0.00 in0.0 mm
02:30 AM 35.4°F1.9°C 34.1°F1.2°C 95% 5.3 mph WNW8.5 kmh WNW 7.0 mph11.3 kmh 30.39 in1029.1 mb 0.00 in0.0 mm 0.00 in0.0 mm 0.00 in0.0 mm
02:45 AM 35.6°F2.0°C 34.6°F1.4°C 96% 5.3 mph WNW8.5 kmh WNW 8.2 mph13.2 kmh 30.39 in1029.1 mb 0.00 in0.0 mm 0.00 in0.0 mm 0.00 in0.0 mm
03:00 AM 35.6°F2.0°C 34.6°F1.4°C 96% 5.9 mph WNW9.5 kmh WNW 7.6 mph12.2 kmh 30.39 in1029.1 mb 0.00 in0.0 mm 0.00 in0.0 mm 0.00 in0.0 mm
03:15 AM 35.6°F2.0°C 34.6°F1.4°C 96% 4.1 mph W6.6 kmh W 6.4 mph10.3 kmh 30.39 in1029.1 mb 0.00 in0.0 mm 0.00 in0.0 mm 0.00 in0.0 mm
03:30 AM 35.6°F2.0°C 34.3°F1.3°C 95% 4.7 mph W7.6 kmh W 6.4 mph10.3 kmh 30.39 in1029.1 mb 0.00 in0.0 mm 0.00 in0.0 mm 0.00 in0.0 mm
03:45 AM 35.4°F1.9°C 34.1°F1.2°C 95% 5.3 mph W8.5 kmh W 7.0 mph11.3 kmh 30.39 in1029.1 mb 0.00 in0.0 mm 0.00 in0.0 mm 0.00 in0.0 mm
04:00 AM 35.1°F1.7°C 33.2°F0.7°C 93% 5.3 mph WNW8.5 kmh WNW 7.6 mph12.2 kmh 30.39 in1029.1 mb 0.00 in0.0 mm 0.00 in0.0 mm 0.00 in0.0 mm
04:15 AM 34.9°F1.6°C 33.1°F0.6°C 93% 5.3 mph W8.5 kmh W 8.2 mph13.2 kmh 30.39 in1029.1 mb 0.00 in0.0 mm 0.00 in0.0 mm 0.00 in0.0 mm
04:30 AM 34.9°F1.6°C 32.8°F0.4°C 92% 6.4 mph WNW10.3 kmh WNW 7.6 mph12.2 kmh 30.39 in1029.1 mb 0.00 in0.0 mm 0.00 in0.0 mm 0.00 in0.0 mm
04:45 AM 35.1°F1.7°C 32.7°F0.4°C 91% 4.7 mph WNW7.6 kmh WNW 7.0 mph11.3 kmh 30.39 in1029.1 mb 0.00 in0.0 mm 0.00 in0.0 mm 0.00 in0.0 mm
05:00 AM 35.4°F1.9°C 33.1°F0.6°C 91% 6.4 mph WNW10.3 kmh WNW 8.2 mph13.2 kmh 30.36 in1028.1 mb 0.00 in0.0 mm 0.00 in0.0 mm 0.00 in0.0 mm
05:15 AM 35.6°F2.0°C 32.7°F0.4°C 89% 5.9 mph WNW9.5 kmh WNW 8.2 mph13.2 kmh 30.39 in1029.1 mb 0.00 in0.0 mm 0.00 in0.0 mm 0.00 in0.0 mm
05:30 AM 36.0°F2.2°C 32.8°F0.4°C 88% 5.3 mph WNW8.5 kmh WNW 8.2 mph13.2 kmh 30.39 in1029.1 mb 0.00 in0.0 mm 0.00 in0.0 mm 0.00 in0.0 mm
05:45 AM 36.0°F2.2°C 32.8°F0.4°C 88% 7.0 mph WNW11.3 kmh WNW 8.2 mph13.2 kmh 30.39 in1029.1 mb 0.00 in0.0 mm 0.00 in0.0 mm 0.00 in0.0 mm
06:00 AM 35.6°F2.0°C 32.1°F0.1°C 87% 5.9 mph WNW9.5 kmh WNW 8.2 mph13.2 kmh 30.39 in1029.1 mb 0.00 in0.0 mm 0.00 in0.0 mm 0.00 in0.0 mm
06:15 AM 35.6°F2.0°C 32.1°F0.1°C 87% 4.7 mph WNW7.6 kmh WNW 7.6 mph12.2 kmh 30.39 in1029.1 mb 0.00 in0.0 mm 0.00 in0.0 mm 0.00 in0.0 mm
06:30 AM 35.6°F2.0°C 32.4°F0.2°C 88% 5.9 mph WNW9.5 kmh WNW 8.2 mph13.2 kmh 30.39 in1029.1 mb 0.00 in0.0 mm 0.00 in0.0 mm 0.00 in0.0 mm
06:45 AM 34.7°F1.5°C 31.8°F-0.1°C 89% 5.3 mph W8.5 kmh W 7.6 mph12.2 kmh 30.39 in1029.1 mb 0.00 in0.0 mm 0.00 in0.0 mm 0.00 in0.0 mm
07:00 AM 34.0°F1.1°C 31.6°F-0.2°C 91% 6.4 mph W10.3 kmh W 7.0 mph11.3 kmh 30.39 in1029.1 mb 0.00 in0.0 mm 0.00 in0.0 mm 0.00 in0.0 mm
07:15 AM 33.8°F1.0°C 32.3°F0.2°C 94% 7.0 mph W11.3 kmh W 8.2 mph13.2 kmh 30.39 in1029.1 mb 0.00 in0.0 mm 0.00 in0.0 mm 0.00 in0.0 mm
07:30 AM 34.3°F1.3°C 32.8°F0.4°C 94% 5.9 mph WNW9.5 kmh WNW 7.6 mph12.2 kmh 30.39 in1029.1 mb 0.00 in0.0 mm 0.00 in0.0 mm 0.00 in0.0 mm
07:45 AM 34.3°F1.3°C 32.8°F0.4°C 94% 5.9 mph WNW9.5 kmh WNW 7.6 mph12.2 kmh 30.42 in1030.1 mb 0.00 in0.0 mm 0.00 in0.0 mm 0.00 in0.0 mm
08:00 AM 34.0°F1.1°C 32.2°F0.1°C 93% 5.9 mph W9.5 kmh W 7.6 mph12.2 kmh 30.42 in1030.1 mb 0.00 in0.0 mm 0.00 in0.0 mm 0.00 in0.0 mm
08:15 AM 34.5°F1.4°C 33.2°F0.7°C 95% 5.3 mph WNW8.5 kmh WNW 7.6 mph12.2 kmh 30.42 in1030.1 mb 0.00 in0.0 mm 0.00 in0.0 mm 0.00 in0.0 mm
08:30 AM 35.2°F1.8°C 33.7°F0.9°C 94% 7.0 mph W11.3 kmh W 10.0 mph16.1 kmh 30.42 in1030.1 mb 0.00 in0.0 mm 0.00 in0.0 mm 0.00 in0.0 mm
08:45 AM 35.8°F2.1°C 33.7°F0.9°C 92% 5.9 mph WNW9.5 kmh WNW 8.2 mph13.2 kmh 30.42 in1030.1 mb 0.00 in0.0 mm 0.00 in0.0 mm 0.00 in0.0 mm
09:00 AM 36.3°F2.4°C 33.9°F1.1°C 91% 5.9 mph W9.5 kmh W 7.6 mph12.2 kmh 30.42 in1030.1 mb 0.00 in0.0 mm 0.00 in0.0 mm 0.00 in0.0 mm
09:15 AM 37.4°F3.0°C 34.7°F1.5°C 90% 4.1 mph WNW6.6 kmh WNW 6.4 mph10.3 kmh 30.42 in1030.1 mb 0.00 in0.0 mm 0.00 in0.0 mm 0.00 in0.0 mm
09:30 AM 38.8°F3.8°C 36.4°F2.4°C 91% 2.9 mph WNW4.7 kmh WNW 6.4 mph10.3 kmh 30.42 in1030.1 mb 0.00 in0.0 mm 0.00 in0.0 mm 0.00 in0.0 mm
09:45 AM 42.4°F5.8°C 38.5°F3.6°C 86% Calm Calm -- 30.42 in1030.1 mb 0.00 in0.0 mm 0.00 in0.0 mm 0.00 in0.0 mm
10:00 AM 44.2°F6.8°C 40.0°F4.4°C 85% Calm Calm -- 30.42 in1030.1 mb 0.00 in0.0 mm 0.00 in0.0 mm 0.00 in0.0 mm
10:15 AM 48.2°F9.0°C 44.2°F6.8°C 86% Calm Calm -- 30.42 in1030.1 mb 0.00 in0.0 mm 0.00 in0.0 mm 0.00 in0.0 mm
10:30 AM 50.2°F10.1°C 45.8°F7.7°C 85% Calm Calm -- 30.42 in1030.1 mb 0.00 in0.0 mm 0.00 in0.0 mm 0.00 in0.0 mm
10:45 AM 53.2°F11.8°C 47.9°F8.8°C 82% 4.1 mph SE6.6 kmh SE 5.3 mph8.5 kmh 30.42 in1030.1 mb 0.00 in0.0 mm 0.00 in0.0 mm 0.00 in0.0 mm
11:00 AM 55.4°F13.0°C 47.6°F8.7°C 75% 4.1 mph ESE6.6 kmh ESE 7.6 mph12.2 kmh 30.42 in1030.1 mb 0.00 in0.0 mm 0.00 in0.0 mm 0.00 in0.0 mm
11:15 AM 56.8°F13.8°C 47.5°F8.6°C 71% 3.5 mph SE5.6 kmh SE 6.4 mph10.3 kmh 30.42 in1030.1 mb 0.00 in0.0 mm 0.00 in0.0 mm 0.00 in0.0 mm
11:30 AM 57.9°F14.4°C 47.0°F8.3°C 67% 4.7 mph ESE7.6 kmh ESE 8.2 mph13.2 kmh 30.42 in1030.1 mb 0.00 in0.0 mm 0.00 in0.0 mm 0.00 in0.0 mm
11:45 AM 58.8°F14.9°C 47.1°F8.4°C 65% 6.4 mph SE10.3 kmh SE 10.5 mph16.9 kmh 30.45 in1031.2 mb 0.00 in0.0 mm 0.00 in0.0 mm 0.00 in0.0 mm
12:00 PM 58.8°F14.9°C 46.2°F7.9°C 63% 6.4 mph SE10.3 kmh SE 7.6 mph12.2 kmh 30.42 in1030.1 mb 0.00 in0.0 mm 0.00 in0.0 mm 0.00 in0.0 mm
12:15 PM 59.4°F15.2°C 45.9°F7.7°C 61% 6.4 mph ESE10.3 kmh ESE 8.2 mph13.2 kmh 30.42 in1030.1 mb 0.00 in0.0 mm 0.00 in0.0 mm 0.00 in0.0 mm
12:30 PM 59.5°F15.3°C 45.6°F7.6°C 60% 6.4 mph SE10.3 kmh SE 10.8 mph17.4 kmh 30.42 in1030.1 mb 0.00 in0.0 mm 0.00 in0.0 mm 0.00 in0.0 mm
12:45 PM 59.5°F15.3°C 44.3°F6.8°C 57% 8.8 mph SE14.2 kmh SE 10.8 mph17.4 kmh 30.42 in1030.1 mb 0.00 in0.0 mm 0.00 in0.0 mm 0.00 in0.0 mm
01:00 PM 59.7°F15.4°C 45.4°F7.4°C 59% 9.4 mph SE15.1 kmh SE 13.2 mph21.2 kmh 30.42 in1030.1 mb 0.00 in0.0 mm 0.00 in0.0 mm 0.00 in0.0 mm
01:15 PM 59.5°F15.3°C 44.7°F7.1°C 58% 9.4 mph SE15.1 kmh SE 12.6 mph20.3 kmh 30.42 in1030.1 mb 0.00 in0.0 mm 0.00 in0.0 mm 0.00 in0.0 mm
01:30 PM 59.4°F15.2°C 45.0°F7.2°C 59% 7.0 mph SE11.3 kmh SE 11.4 mph18.3 kmh 30.42 in1030.1 mb 0.00 in0.0 mm 0.00 in0.0 mm 0.00 in0.0 mm
01:45 PM 59.5°F15.3°C 45.2°F7.3°C 59% 8.2 mph ESE13.2 kmh ESE 10.8 mph17.4 kmh 30.42 in1030.1 mb 0.00 in0.0 mm 0.00 in0.0 mm 0.00 in0.0 mm
02:00 PM 59.0°F15.0°C 44.7°F7.1°C 59% 10.5 mph SE16.9 kmh SE 11.4 mph18.3 kmh 30.42 in1030.1 mb 0.00 in0.0 mm 0.00 in0.0 mm 0.00 in0.0 mm
02:15 PM 59.0°F15.0°C 45.6°F7.6°C 61% 7.6 mph ESE12.2 kmh ESE 13.2 mph21.2 kmh 30.42 in1030.1 mb 0.00 in0.0 mm 0.00 in0.0 mm 0.00 in0.0 mm
02:45 PM 59.0°F15.0°C 46.0°F7.8°C 62% 8.8 mph SE14.2 kmh SE 10.5 mph16.9 kmh 30.39 in1029.1 mb 0.00 in0.0 mm 0.00 in0.0 mm 0.00 in0.0 mm
03:00 PM 59.0°F15.0°C 46.0°F7.8°C 62% 6.4 mph SE10.3 kmh SE 10.5 mph16.9 kmh 30.39 in1029.1 mb 0.00 in0.0 mm 0.00 in0.0 mm 0.00 in0.0 mm
03:15 PM 59.0°F15.0°C 46.0°F7.8°C 62% 6.4 mph SE10.3 kmh SE 8.8 mph14.2 kmh 30.36 in1028.1 mb 0.00 in0.0 mm 0.00 in0.0 mm 0.00 in0.0 mm
03:30 PM 59.4°F15.2°C 45.5°F7.5°C 60% 5.3 mph SE8.5 kmh SE 8.2 mph13.2 kmh 30.39 in1029.1 mb 0.00 in0.0 mm 0.00 in0.0 mm 0.00 in0.0 mm
03:45 PM 59.2°F15.1°C 45.3°F7.4°C 60% 7.6 mph SE12.2 kmh SE 11.4 mph18.3 kmh 30.39 in1029.1 mb 0.00 in0.0 mm 0.00 in0.0 mm 0.00 in0.0 mm
04:00 PM 59.0°F15.0°C 45.6°F7.6°C 61% 8.2 mph SE13.2 kmh SE 10.8 mph17.4 kmh 30.36 in1028.1 mb 0.00 in0.0 mm 0.00 in0.0 mm 0.00 in0.0 mm
04:15 PM 58.8°F14.9°C 45.8°F7.7°C 62% 5.9 mph SE9.5 kmh SE 8.2 mph13.2 kmh 30.36 in1028.1 mb 0.00 in0.0 mm 0.00 in0.0 mm 0.00 in0.0 mm
04:30 PM 58.5°F14.7°C 46.3°F7.9°C 64% 4.7 mph SE7.6 kmh SE 8.2 mph13.2 kmh 30.36 in1028.1 mb 0.00 in0.0 mm 0.00 in0.0 mm 0.00 in0.0 mm
04:45 PM 57.9°F14.4°C 46.2°F7.9°C 65% 4.7 mph SE7.6 kmh SE 8.2 mph13.2 kmh 30.36 in1028.1 mb 0.00 in0.0 mm 0.00 in0.0 mm 0.00 in0.0 mm
05:00 PM 57.6°F14.2°C 46.3°F7.9°C 66% 7.6 mph SE12.2 kmh SE 10.0 mph16.1 kmh 30.36 in1028.1 mb 0.00 in0.0 mm 0.00 in0.0 mm 0.00 in0.0 mm
05:15 PM 56.8°F13.8°C 46.4°F8.0°C 68% 5.9 mph SE9.5 kmh SE 10.5 mph16.9 kmh 30.36 in1028.1 mb 0.00 in0.0 mm 0.00 in0.0 mm 0.00 in0.0 mm
05:30 PM 56.1°F13.4°C 46.5°F8.1°C 70% 6.4 mph SE10.3 kmh SE 8.2 mph13.2 kmh 30.36 in1028.1 mb 0.00 in0.0 mm 0.00 in0.0 mm 0.00 in0.0 mm
05:45 PM 55.6°F13.1°C 46.3°F7.9°C 71% 4.1 mph SE6.6 kmh SE 8.2 mph13.2 kmh 30.36 in1028.1 mb 0.00 in0.0 mm 0.00 in0.0 mm 0.00 in0.0 mm
06:00 PM 54.7°F12.6°C 45.8°F7.7°C 72% 2.9 mph SE4.7 kmh SE 8.2 mph13.2 kmh 30.36 in1028.1 mb 0.00 in0.0 mm 0.00 in0.0 mm 0.00 in0.0 mm
06:15 PM 54.1°F12.3°C 45.7°F7.6°C 73% Calm Calm -- 30.36 in1028.1 mb 0.00 in0.0 mm 0.00 in0.0 mm 0.00 in0.0 mm
06:30 PM 53.1°F11.7°C 45.0°F7.2°C 74% Calm Calm -- 30.36 in1028.1 mb 0.00 in0.0 mm 0.00 in0.0 mm 0.00 in0.0 mm
06:45 PM 52.0°F11.1°C 43.9°F6.6°C 74% Calm Calm -- 30.36 in1028.1 mb 0.00 in0.0 mm 0.00 in0.0 mm 0.00 in0.0 mm
07:00 PM 50.5°F10.3°C 42.9°F6.1°C 75% Calm Calm -- 30.36 in1028.1 mb 0.00 in0.0 mm 0.00 in0.0 mm 0.00 in0.0 mm
07:15 PM 48.7°F9.3°C 41.8°F5.4°C 77% Calm Calm -- 30.36 in1028.1 mb 0.00 in0.0 mm 0.00 in0.0 mm 0.00 in0.0 mm
07:30 PM 47.3°F8.5°C 39.8°F4.3°C 75% 5.3 mph WNW8.5 kmh WNW 7.6 mph12.2 kmh 30.36 in1028.1 mb 0.00 in0.0 mm 0.00 in0.0 mm 0.00 in0.0 mm
07:45 PM 45.7°F7.6°C 38.2°F3.4°C 75% 4.7 mph W7.6 kmh W 6.4 mph10.3 kmh 30.36 in1028.1 mb 0.00 in0.0 mm 0.00 in0.0 mm 0.00 in0.0 mm
08:00 PM 44.6°F7.0°C 37.2°F2.9°C 75% 4.1 mph W6.6 kmh W 5.9 mph9.5 kmh 30.36 in1028.1 mb 0.00 in0.0 mm 0.00 in0.0 mm 0.00 in0.0 mm
08:15 PM 43.0°F6.1°C 36.3°F2.4°C 77% 4.1 mph WNW6.6 kmh WNW 8.2 mph13.2 kmh 30.36 in1028.1 mb 0.00 in0.0 mm 0.00 in0.0 mm 0.00 in0.0 mm
08:30 PM 41.7°F5.4°C 35.4°F1.9°C 78% 5.3 mph W8.5 kmh W 8.2 mph13.2 kmh 30.36 in1028.1 mb 0.00 in0.0 mm 0.00 in0.0 mm 0.00 in0.0 mm
08:45 PM 40.6°F4.8°C 34.6°F1.4°C 79% 5.3 mph W8.5 kmh W 7.6 mph12.2 kmh 30.36 in1028.1 mb 0.00 in0.0 mm 0.00 in0.0 mm 0.00 in0.0 mm
09:00 PM 39.7°F4.3°C 33.4°F0.8°C 78% 5.9 mph W9.5 kmh W 7.6 mph12.2 kmh 30.36 in1028.1 mb 0.00 in0.0 mm 0.00 in0.0 mm 0.00 in0.0 mm
09:15 PM 39.0°F3.9°C 32.4°F0.2°C 77% 5.9 mph W9.5 kmh W 7.6 mph12.2 kmh 30.36 in1028.1 mb 0.00 in0.0 mm 0.00 in0.0 mm 0.00 in0.0 mm
09:30 PM 38.7°F3.7°C 31.4°F-0.3°C 75% 4.1 mph W6.6 kmh W 8.2 mph13.2 kmh 30.36 in1028.1 mb 0.00 in0.0 mm 0.00 in0.0 mm 0.00 in0.0 mm
09:45 PM 38.3°F3.5°C 30.4°F-0.9°C 73% 5.9 mph W9.5 kmh W 7.6 mph12.2 kmh 30.36 in1028.1 mb 0.00 in0.0 mm 0.00 in0.0 mm 0.00 in0.0 mm
10:00 PM 38.1°F3.4°C 29.9°F-1.2°C 72% 6.4 mph WNW10.3 kmh WNW 7.6 mph12.2 kmh 30.36 in1028.1 mb 0.00 in0.0 mm 0.00 in0.0 mm 0.00 in0.0 mm
10:15 PM 37.8°F3.2°C 29.2°F-1.6°C 71% 7.0 mph W11.3 kmh W 8.2 mph13.2 kmh 30.36 in1028.1 mb 0.00 in0.0 mm 0.00 in0.0 mm 0.00 in0.0 mm
10:30 PM 37.4°F3.0°C 28.5°F-1.9°C 70% 7.0 mph W11.3 kmh W 8.2 mph13.2 kmh 30.36 in1028.1 mb 0.00 in0.0 mm 0.00 in0.0 mm 0.00 in0.0 mm
10:45 PM 37.2°F2.9°C 29.0°F-1.7°C 72% 10.5 mph W16.9 kmh W 11.4 mph18.3 kmh 30.36 in1028.1 mb 0.00 in0.0 mm 0.00 in0.0 mm 0.00 in0.0 mm
11:00 PM 37.4°F3.0°C 28.2°F-2.1°C 69% 5.3 mph W8.5 kmh W 8.2 mph13.2 kmh 30.36 in1028.1 mb 0.00 in0.0 mm 0.00 in0.0 mm 0.00 in0.0 mm
11:15 PM 37.0°F2.8°C 27.5°F-2.5°C 68% 7.0 mph W11.3 kmh W 8.2 mph13.2 kmh 30.36 in1028.1 mb 0.00 in0.0 mm 0.00 in0.0 mm 0.00 in0.0 mm
11:30 PM 36.9°F2.7°C 28.0°F-2.2°C 70% 4.7 mph W7.6 kmh W 10.0 mph16.1 kmh 30.36 in1028.1 mb 0.00 in0.0 mm 0.00 in0.0 mm 0.00 in0.0 mm
11:45 PM 36.3°F2.4°C 27.8°F-2.3°C 71% 6.4 mph W10.3 kmh W 8.2 mph13.2 kmh 30.36 in1028.1 mb 0.00 in0.0 mm 0.00 in0.0 mm 0.00 in0.0 mm